sensor_id;sensor_type;location;lat;lon;timestamp;temperature;humidity
21635;DHT22;10979;48.306;9.830;2022-07-24T00:01:57;15.40;99.90
21635;DHT22;10979;48.306;9.830;2022-07-24T00:04:22;15.30;99.90
21635;DHT22;10979;48.306;9.830;2022-07-24T00:06:48;15.50;99.90
21635;DHT22;10979;48.306;9.830;2022-07-24T00:09:14;15.70;99.90
21635;DHT22;10979;48.306;9.830;2022-07-24T00:11:40;15.70;99.90
21635;DHT22;10979;48.306;9.830;2022-07-24T00:14:06;15.60;99.90
21635;DHT22;10979;48.306;9.830;2022-07-24T00:16:31;15.50;99.90
21635;DHT22;10979;48.306;9.830;2022-07-24T00:18:57;15.40;99.90
21635;DHT22;10979;48.306;9.830;2022-07-24T00:21:23;15.40;99.90
21635;DHT22;10979;48.306;9.830;2022-07-24T00:23:48;15.40;99.90
21635;DHT22;10979;48.306;9.830;2022-07-24T00:26:14;15.30;99.90
21635;DHT22;10979;48.306;9.830;2022-07-24T00:28:40;15.30;99.90
21635;DHT22;10979;48.306;9.830;2022-07-24T00:31:05;15.20;99.90
21635;DHT22;10979;48.306;9.830;2022-07-24T00:33:31;15.50;99.90
21635;DHT22;10979;48.306;9.830;2022-07-24T00:35:57;15.40;99.90
21635;DHT22;10979;48.306;9.830;2022-07-24T00:38:22;15.30;99.90
21635;DHT22;10979;48.306;9.830;2022-07-24T00:40:48;15.40;99.90
21635;DHT22;10979;48.306;9.830;2022-07-24T00:43:14;15.40;99.90
21635;DHT22;10979;48.306;9.830;2022-07-24T00:45:42;15.40;99.90
21635;DHT22;10979;48.306;9.830;2022-07-24T00:48:07;15.30;99.90
21635;DHT22;10979;48.306;9.830;2022-07-24T00:50:33;15.20;99.90
21635;DHT22;10979;48.306;9.830;2022-07-24T00:52:59;15.30;99.90
21635;DHT22;10979;48.306;9.830;2022-07-24T00:55:26;15.20;99.90
21635;DHT22;10979;48.306;9.830;2022-07-24T00:57:51;15.10;99.90
21635;DHT22;10979;48.306;9.830;2022-07-24T01:00:20;15.10;99.90
21635;DHT22;10979;48.306;9.830;2022-07-24T01:02:48;15.20;99.90
21635;DHT22;10979;48.306;9.830;2022-07-24T01:05:14;15.30;99.90
21635;DHT22;10979;48.306;9.830;2022-07-24T01:07:39;15.00;99.90
21635;DHT22;10979;48.306;9.830;2022-07-24T01:10:06;14.80;99.90
21635;DHT22;10979;48.306;9.830;2022-07-24T01:12:33;14.70;99.90
21635;DHT22;10979;48.306;9.830;2022-07-24T01:14:59;14.60;99.90
21635;DHT22;10979;48.306;9.830;2022-07-24T01:17:33;14.70;99.90
21635;DHT22;10979;48.306;9.830;2022-07-24T01:19:59;14.70;99.90
21635;DHT22;10979;48.306;9.830;2022-07-24T01:22:25;14.80;99.90
21635;DHT22;10979;48.306;9.830;2022-07-24T01:24:51;14.80;99.90
21635;DHT22;10979;48.306;9.830;2022-07-24T01:27:17;14.80;99.90
21635;DHT22;10979;48.306;9.830;2022-07-24T01:29:43;14.90;99.90
21635;DHT22;10979;48.306;9.830;2022-07-24T01:32:09;14.90;99.90
21635;DHT22;10979;48.306;9.830;2022-07-24T01:34:34;14.80;99.90
21635;DHT22;10979;48.306;9.830;2022-07-24T01:37:00;14.80;99.90
21635;DHT22;10979;48.306;9.830;2022-07-24T01:39:26;14.60;99.90
21635;DHT22;10979;48.306;9.830;2022-07-24T01:41:51;14.40;99.90
21635;DHT22;10979;48.306;9.830;2022-07-24T01:44:17;14.30;99.90
21635;DHT22;10979;48.306;9.830;2022-07-24T01:46:42;14.30;99.90
21635;DHT22;10979;48.306;9.830;2022-07-24T01:49:09;14.30;99.90
21635;DHT22;10979;48.306;9.830;2022-07-24T01:51:35;14.20;99.90
21635;DHT22;10979;48.306;9.830;2022-07-24T01:54:00;14.20;99.90
21635;DHT22;10979;48.306;9.830;2022-07-24T01:56:28;14.30;99.90
21635;DHT22;10979;48.306;9.830;2022-07-24T01:58:54;14.30;99.90
21635;DHT22;10979;48.306;9.830;2022-07-24T02:01:19;14.50;99.90
21635;DHT22;10979;48.306;9.830;2022-07-24T02:03:45;14.50;99.90
21635;DHT22;10979;48.306;9.830;2022-07-24T02:06:10;14.60;99.90
21635;DHT22;10979;48.306;9.830;2022-07-24T02:08:36;14.40;99.90
21635;DHT22;10979;48.306;9.830;2022-07-24T02:11:01;14.20;99.90
21635;DHT22;10979;48.306;9.830;2022-07-24T02:13:27;14.10;99.90
21635;DHT22;10979;48.306;9.830;2022-07-24T02:15:53;13.90;99.90
21635;DHT22;10979;48.306;9.830;2022-07-24T02:18:18;13.90;99.90
21635;DHT22;10979;48.306;9.830;2022-07-24T02:20:44;14.10;99.90
21635;DHT22;10979;48.306;9.830;2022-07-24T02:23:09;14.10;99.90
21635;DHT22;10979;48.306;9.830;2022-07-24T02:25:35;14.10;99.90
21635;DHT22;10979;48.306;9.830;2022-07-24T02:28:01;14.20;99.90
21635;DHT22;10979;48.306;9.830;2022-07-24T02:30:27;14.30;99.90
21635;DHT22;10979;48.306;9.830;2022-07-24T02:32:52;14.20;99.90
21635;DHT22;10979;48.306;9.830;2022-07-24T02:35:18;14.20;99.90
21635;DHT22;10979;48.306;9.830;2022-07-24T02:37:45;14.10;99.90
21635;DHT22;10979;48.306;9.830;2022-07-24T02:40:11;13.90;99.90
21635;DHT22;10979;48.306;9.830;2022-07-24T02:42:38;13.90;99.90
21635;DHT22;10979;48.306;9.830;2022-07-24T02:45:05;14.00;99.90
21635;DHT22;10979;48.306;9.830;2022-07-24T02:47:31;14.00;99.90
21635;DHT22;10979;48.306;9.830;2022-07-24T02:49:56;14.10;99.90
21635;DHT22;10979;48.306;9.830;2022-07-24T02:52:22;14.00;99.90
21635;DHT22;10979;48.306;9.830;2022-07-24T02:54:48;14.00;99.90
21635;DHT22;10979;48.306;9.830;2022-07-24T02:57:13;14.00;99.90
21635;DHT22;10979;48.306;9.830;2022-07-24T02:59:39;14.10;99.90
21635;DHT22;10979;48.306;9.830;2022-07-24T03:02:04;14.20;99.90
21635;DHT22;10979;48.306;9.830;2022-07-24T03:04:30;14.20;99.90
21635;DHT22;10979;48.306;9.830;2022-07-24T03:06:56;14.00;99.90
21635;DHT22;10979;48.306;9.830;2022-07-24T03:09:21;13.80;99.90
21635;DHT22;10979;48.306;9.830;2022-07-24T03:11:47;13.80;99.90
21635;DHT22;10979;48.306;9.830;2022-07-24T03:14:12;13.80;99.90
21635;DHT22;10979;48.306;9.830;2022-07-24T03:16:38;13.80;99.90
21635;DHT22;10979;48.306;9.830;2022-07-24T03:19:03;13.90;99.90
21635;DHT22;10979;48.306;9.830;2022-07-24T03:21:29;14.00;99.90
21635;DHT22;10979;48.306;9.830;2022-07-24T03:23:55;14.00;99.90
21635;DHT22;10979;48.306;9.830;2022-07-24T03:26:20;13.80;99.90
21635;DHT22;10979;48.306;9.830;2022-07-24T03:28:46;13.60;99.90
21635;DHT22;10979;48.306;9.830;2022-07-24T03:31:12;13.60;99.90
21635;DHT22;10979;48.306;9.830;2022-07-24T03:33:37;13.60;99.90
21635;DHT22;10979;48.306;9.830;2022-07-24T03:36:03;13.70;99.90
21635;DHT22;10979;48.306;9.830;2022-07-24T03:38:29;13.80;99.90
21635;DHT22;10979;48.306;9.830;2022-07-24T03:40:54;13.70;99.90
21635;DHT22;10979;48.306;9.830;2022-07-24T03:43:20;13.80;99.90
21635;DHT22;10979;48.306;9.830;2022-07-24T03:45:45;13.70;99.90
21635;DHT22;10979;48.306;9.830;2022-07-24T03:48:11;13.80;99.90
21635;DHT22;10979;48.306;9.830;2022-07-24T03:50:36;13.90;99.90
21635;DHT22;10979;48.306;9.830;2022-07-24T03:53:02;13.80;99.90
21635;DHT22;10979;48.306;9.830;2022-07-24T03:55:28;13.80;99.90
21635;DHT22;10979;48.306;9.830;2022-07-24T03:57:53;13.80;99.90
21635;DHT22;10979;48.306;9.830;2022-07-24T04:00:19;13.80;99.90
21635;DHT22;10979;48.306;9.830;2022-07-24T04:02:45;13.80;99.90
21635;DHT22;10979;48.306;9.830;2022-07-24T04:05:10;13.90;99.90
21635;DHT22;10979;48.306;9.830;2022-07-24T04:07:38;14.00;99.90
21635;DHT22;10979;48.306;9.830;2022-07-24T04:10:05;14.00;99.90
21635;DHT22;10979;48.306;9.830;2022-07-24T04:12:31;14.00;99.90
21635;DHT22;10979;48.306;9.830;2022-07-24T04:14:56;14.00;99.90
21635;DHT22;10979;48.306;9.830;2022-07-24T04:17:22;13.90;99.90
21635;DHT22;10979;48.306;9.830;2022-07-24T04:19:48;13.80;99.90
21635;DHT22;10979;48.306;9.830;2022-07-24T04:22:13;14.00;99.90
21635;DHT22;10979;48.306;9.830;2022-07-24T04:24:39;14.00;99.90
21635;DHT22;10979;48.306;9.830;2022-07-24T04:27:04;14.10;99.90
21635;DHT22;10979;48.306;9.830;2022-07-24T04:29:30;14.10;99.90
21635;DHT22;10979;48.306;9.830;2022-07-24T04:31:56;14.30;99.90
21635;DHT22;10979;48.306;9.830;2022-07-24T04:34:21;14.40;99.90
21635;DHT22;10979;48.306;9.830;2022-07-24T04:36:47;14.60;99.90
21635;DHT22;10979;48.306;9.830;2022-07-24T04:39:12;14.80;99.90
21635;DHT22;10979;48.306;9.830;2022-07-24T04:41:38;15.00;99.90
21635;DHT22;10979;48.306;9.830;2022-07-24T04:44:04;15.20;99.90
21635;DHT22;10979;48.306;9.830;2022-07-24T04:46:29;15.20;99.90
21635;DHT22;10979;48.306;9.830;2022-07-24T04:48:55;15.40;99.90
21635;DHT22;10979;48.306;9.830;2022-07-24T04:51:21;15.60;99.90
21635;DHT22;10979;48.306;9.830;2022-07-24T04:53:46;15.90;99.90
21635;DHT22;10979;48.306;9.830;2022-07-24T04:56:12;15.90;99.90
21635;DHT22;10979;48.306;9.830;2022-07-24T04:58:37;16.00;99.90
21635;DHT22;10979;48.306;9.830;2022-07-24T05:01:03;16.60;99.90
21635;DHT22;10979;48.306;9.830;2022-07-24T05:03:29;16.40;99.90
21635;DHT22;10979;48.306;9.830;2022-07-24T05:05:54;16.30;99.90
21635;DHT22;10979;48.306;9.830;2022-07-24T05:08:20;16.30;99.90
21635;DHT22;10979;48.306;9.830;2022-07-24T05:10:46;16.50;99.90
21635;DHT22;10979;48.306;9.830;2022-07-24T05:13:11;16.70;99.90
21635;DHT22;10979;48.306;9.830;2022-07-24T05:15:37;16.70;99.90
21635;DHT22;10979;48.306;9.830;2022-07-24T05:18:02;16.80;99.90
21635;DHT22;10979;48.306;9.830;2022-07-24T05:20:28;17.20;99.90
21635;DHT22;10979;48.306;9.830;2022-07-24T05:22:53;17.30;99.90
21635;DHT22;10979;48.306;9.830;2022-07-24T05:25:19;17.40;99.90
21635;DHT22;10979;48.306;9.830;2022-07-24T05:27:45;17.40;99.90
21635;DHT22;10979;48.306;9.830;2022-07-24T05:30:11;17.40;99.90
21635;DHT22;10979;48.306;9.830;2022-07-24T05:32:36;17.40;99.90
21635;DHT22;10979;48.306;9.830;2022-07-24T05:35:02;17.30;99.90
21635;DHT22;10979;48.306;9.830;2022-07-24T05:37:28;17.60;99.90
21635;DHT22;10979;48.306;9.830;2022-07-24T05:39:54;17.90;99.90
21635;DHT22;10979;48.306;9.830;2022-07-24T05:42:19;17.90;99.90
21635;DHT22;10979;48.306;9.830;2022-07-24T05:44:45;17.80;99.90
21635;DHT22;10979;48.306;9.830;2022-07-24T05:47:11;17.90;99.90
21635;DHT22;10979;48.306;9.830;2022-07-24T05:49:36;17.90;99.90
21635;DHT22;10979;48.306;9.830;2022-07-24T05:52:02;18.10;99.90
21635;DHT22;10979;48.306;9.830;2022-07-24T05:54:28;18.30;99.90
21635;DHT22;10979;48.306;9.830;2022-07-24T05:56:53;18.60;99.90
21635;DHT22;10979;48.306;9.830;2022-07-24T05:59:19;18.60;99.90
21635;DHT22;10979;48.306;9.830;2022-07-24T06:01:44;18.60;99.90
21635;DHT22;10979;48.306;9.830;2022-07-24T06:04:10;18.50;99.90
21635;DHT22;10979;48.306;9.830;2022-07-24T06:06:36;18.70;99.90
21635;DHT22;10979;48.306;9.830;2022-07-24T06:09:02;19.00;99.90
21635;DHT22;10979;48.306;9.830;2022-07-24T06:11:27;19.00;99.90
21635;DHT22;10979;48.306;9.830;2022-07-24T06:13:53;19.10;99.90
21635;DHT22;10979;48.306;9.830;2022-07-24T06:16:19;19.40;99.90
21635;DHT22;10979;48.306;9.830;2022-07-24T06:18:45;19.50;99.90
21635;DHT22;10979;48.306;9.830;2022-07-24T06:21:10;19.60;99.90
21635;DHT22;10979;48.306;9.830;2022-07-24T06:23:36;20.10;99.90
21635;DHT22;10979;48.306;9.830;2022-07-24T06:26:02;20.40;99.90
21635;DHT22;10979;48.306;9.830;2022-07-24T06:28:28;20.50;99.90
21635;DHT22;10979;48.306;9.830;2022-07-24T06:30:53;20.50;99.90
21635;DHT22;10979;48.306;9.830;2022-07-24T06:33:19;20.80;99.90
21635;DHT22;10979;48.306;9.830;2022-07-24T06:35:45;21.30;99.90
21635;DHT22;10979;48.306;9.830;2022-07-24T06:38:10;24.90;99.90
21635;DHT22;10979;48.306;9.830;2022-07-24T06:40:37;27.30;99.90
21635;DHT22;10979;48.306;9.830;2022-07-24T06:43:04;26.70;99.90
21635;DHT22;10979;48.306;9.830;2022-07-24T06:45:29;28.50;99.90
21635;DHT22;10979;48.306;9.830;2022-07-24T06:48:00;28.50;99.90
21635;DHT22;10979;48.306;9.830;2022-07-24T06:50:26;28.40;99.90
21635;DHT22;10979;48.306;9.830;2022-07-24T06:52:52;28.60;99.90
21635;DHT22;10979;48.306;9.830;2022-07-24T06:55:18;29.30;99.90
21635;DHT22;10979;48.306;9.830;2022-07-24T06:57:43;29.60;99.90
21635;DHT22;10979;48.306;9.830;2022-07-24T07:00:10;29.90;99.90
21635;DHT22;10979;48.306;9.830;2022-07-24T07:02:36;30.10;99.90
21635;DHT22;10979;48.306;9.830;2022-07-24T07:05:15;30.20;99.90
21635;DHT22;10979;48.306;9.830;2022-07-24T07:07:41;30.20;99.90
21635;DHT22;10979;48.306;9.830;2022-07-24T07:10:09;30.30;99.90
21635;DHT22;10979;48.306;9.830;2022-07-24T07:12:35;31.00;99.90
21635;DHT22;10979;48.306;9.830;2022-07-24T07:15:00;31.80;99.90
21635;DHT22;10979;48.306;9.830;2022-07-24T07:17:26;31.00;99.90
21635;DHT22;10979;48.306;9.830;2022-07-24T07:19:51;32.30;99.90
21635;DHT22;10979;48.306;9.830;2022-07-24T07:22:17;32.00;99.90
21635;DHT22;10979;48.306;9.830;2022-07-24T07:24:43;32.20;99.90
21635;DHT22;10979;48.306;9.830;2022-07-24T07:27:08;31.50;99.90
21635;DHT22;10979;48.306;9.830;2022-07-24T07:29:34;31.50;99.90
21635;DHT22;10979;48.306;9.830;2022-07-24T07:31:59;32.00;99.90
21635;DHT22;10979;48.306;9.830;2022-07-24T07:34:25;32.30;99.90
21635;DHT22;10979;48.306;9.830;2022-07-24T07:36:52;31.90;99.90
21635;DHT22;10979;48.306;9.830;2022-07-24T07:39:17;32.30;99.90
21635;DHT22;10979;48.306;9.830;2022-07-24T07:41:43;32.70;99.90
21635;DHT22;10979;48.306;9.830;2022-07-24T07:44:08;32.60;98.80
21635;DHT22;10979;48.306;9.830;2022-07-24T07:46:34;33.30;94.00
21635;DHT22;10979;48.306;9.830;2022-07-24T07:49:00;32.80;94.70
21635;DHT22;10979;48.306;9.830;2022-07-24T07:51:25;33.20;94.60
21635;DHT22;10979;48.306;9.830;2022-07-24T07:53:51;33.20;93.20
21635;DHT22;10979;48.306;9.830;2022-07-24T07:56:17;33.50;92.20
21635;DHT22;10979;48.306;9.830;2022-07-24T07:58:42;32.90;93.10
21635;DHT22;10979;48.306;9.830;2022-07-24T08:01:08;33.50;92.40
21635;DHT22;10979;48.306;9.830;2022-07-24T08:03:33;33.10;90.50
21635;DHT22;10979;48.306;9.830;2022-07-24T08:06:00;32.90;90.40
21635;DHT22;10979;48.306;9.830;2022-07-24T08:08:26;33.20;90.30
21635;DHT22;10979;48.306;9.830;2022-07-24T08:10:52;34.60;87.90
21635;DHT22;10979;48.306;9.830;2022-07-24T08:13:18;33.80;84.20
21635;DHT22;10979;48.306;9.830;2022-07-24T08:15:45;33.10;84.70
21635;DHT22;10979;48.306;9.830;2022-07-24T08:18:10;32.90;83.00
21635;DHT22;10979;48.306;9.830;2022-07-24T08:20:36;33.00;85.70
21635;DHT22;10979;48.306;9.830;2022-07-24T08:23:01;32.70;84.20
21635;DHT22;10979;48.306;9.830;2022-07-24T08:25:27;32.80;85.10
21635;DHT22;10979;48.306;9.830;2022-07-24T08:27:53;33.40;83.50
21635;DHT22;10979;48.306;9.830;2022-07-24T08:30:19;33.70;79.40
21635;DHT22;10979;48.306;9.830;2022-07-24T08:32:45;33.70;76.40
21635;DHT22;10979;48.306;9.830;2022-07-24T08:35:11;34.10;77.40
21635;DHT22;10979;48.306;9.830;2022-07-24T08:37:38;34.00;78.30
21635;DHT22;10979;48.306;9.830;2022-07-24T08:40:04;34.00;76.00
21635;DHT22;10979;48.306;9.830;2022-07-24T08:42:30;34.20;77.10
21635;DHT22;10979;48.306;9.830;2022-07-24T08:44:56;33.60;76.90
21635;DHT22;10979;48.306;9.830;2022-07-24T08:47:22;33.20;78.10
21635;DHT22;10979;48.306;9.830;2022-07-24T08:49:53;33.30;70.30
21635;DHT22;10979;48.306;9.830;2022-07-24T08:52:21;32.40;75.00
21635;DHT22;10979;48.306;9.830;2022-07-24T08:54:47;32.30;73.30
21635;DHT22;10979;48.306;9.830;2022-07-24T08:57:13;33.30;73.00
21635;DHT22;10979;48.306;9.830;2022-07-24T08:59:39;34.40;71.80
21635;DHT22;10979;48.306;9.830;2022-07-24T09:02:05;34.20;69.30
21635;DHT22;10979;48.306;9.830;2022-07-24T09:04:34;34.60;70.90
21635;DHT22;10979;48.306;9.830;2022-07-24T09:07:01;34.80;70.50
21635;DHT22;10979;48.306;9.830;2022-07-24T09:09:27;34.40;70.80
21635;DHT22;10979;48.306;9.830;2022-07-24T09:12:25;33.80;69.80
21635;DHT22;10979;48.306;9.830;2022-07-24T09:14:50;34.20;71.40
21635;DHT22;10979;48.306;9.830;2022-07-24T09:17:19;34.30;70.80
21635;DHT22;10979;48.306;9.830;2022-07-24T09:19:55;33.90;70.80
21635;DHT22;10979;48.306;9.830;2022-07-24T09:27:55;33.60;70.10
21635;DHT22;10979;48.306;9.830;2022-07-24T09:30:33;33.90;68.30
21635;DHT22;10979;48.306;9.830;2022-07-24T09:35:37;34.00;70.10
21635;DHT22;10979;48.306;9.830;2022-07-24T09:38:05;34.30;70.00
21635;DHT22;10979;48.306;9.830;2022-07-24T09:40:31;33.50;69.80
21635;DHT22;10979;48.306;9.830;2022-07-24T09:43:15;32.80;70.40
21635;DHT22;10979;48.306;9.830;2022-07-24T09:46:08;33.70;69.30
21635;DHT22;10979;48.306;9.830;2022-07-24T09:51:08;34.30;65.60
21635;DHT22;10979;48.306;9.830;2022-07-24T09:53:35;33.30;67.80
21635;DHT22;10979;48.306;9.830;2022-07-24T09:56:06;33.90;68.30
21635;DHT22;10979;48.306;9.830;2022-07-24T09:58:35;33.60;68.40
21635;DHT22;10979;48.306;9.830;2022-07-24T10:01:02;32.90;69.60
21635;DHT22;10979;48.306;9.830;2022-07-24T10:03:32;31.80;70.40
21635;DHT22;10979;48.306;9.830;2022-07-24T10:05:58;30.60;74.70
21635;DHT22;10979;48.306;9.830;2022-07-24T10:08:25;30.40;73.80
21635;DHT22;10979;48.306;9.830;2022-07-24T10:10:51;30.30;74.60
21635;DHT22;10979;48.306;9.830;2022-07-24T10:13:17;29.90;73.60
21635;DHT22;10979;48.306;9.830;2022-07-24T10:16:03;29.60;74.00
21635;DHT22;10979;48.306;9.830;2022-07-24T10:27:03;29.60;77.10
21635;DHT22;10979;48.306;9.830;2022-07-24T10:29:32;29.10;78.50
21635;DHT22;10979;48.306;9.830;2022-07-24T10:31:58;29.60;77.30
21635;DHT22;10979;48.306;9.830;2022-07-24T10:46:25;28.80;77.20
21635;DHT22;10979;48.306;9.830;2022-07-24T10:48:35;28.50;75.00
21635;DHT22;10979;48.306;9.830;2022-07-24T10:51:07;28.60;75.50
21635;DHT22;10979;48.306;9.830;2022-07-24T10:53:46;28.90;77.60
21635;DHT22;10979;48.306;9.830;2022-07-24T10:59:00;29.10;73.00
21635;DHT22;10979;48.306;9.830;2022-07-24T11:01:31;28.60;75.60
21635;DHT22;10979;48.306;9.830;2022-07-24T11:03:57;28.50;75.50
21635;DHT22;10979;48.306;9.830;2022-07-24T11:06:42;28.80;74.40
21635;DHT22;10979;48.306;9.830;2022-07-24T11:09:07;29.30;74.30
21635;DHT22;10979;48.306;9.830;2022-07-24T11:20:01;29.80;71.10
21635;DHT22;10979;48.306;9.830;2022-07-24T11:22:42;29.80;69.40
21635;DHT22;10979;48.306;9.830;2022-07-24T11:25:10;29.50;64.50
21635;DHT22;10979;48.306;9.830;2022-07-24T11:30:31;29.80;66.70
21635;DHT22;10979;48.306;9.830;2022-07-24T11:32:57;29.80;64.10
21635;DHT22;10979;48.306;9.830;2022-07-24T11:35:28;29.70;64.70
21635;DHT22;10979;48.306;9.830;2022-07-24T11:37:54;30.90;63.90
21635;DHT22;10979;48.306;9.830;2022-07-24T11:40:20;30.50;63.50
21635;DHT22;10979;48.306;9.830;2022-07-24T11:42:54;30.70;60.10
21635;DHT22;10979;48.306;9.830;2022-07-24T11:45:19;30.20;62.20
21635;DHT22;10979;48.306;9.830;2022-07-24T11:47:45;30.40;65.00
21635;DHT22;10979;48.306;9.830;2022-07-24T11:50:11;30.60;64.50
21635;DHT22;10979;48.306;9.830;2022-07-24T11:52:39;30.80;60.40
21635;DHT22;10979;48.306;9.830;2022-07-24T11:55:09;30.70;63.60
21635;DHT22;10979;48.306;9.830;2022-07-24T11:57:36;30.30;63.10
21635;DHT22;10979;48.306;9.830;2022-07-24T12:00:05;31.10;63.00
21635;DHT22;10979;48.306;9.830;2022-07-24T12:02:32;31.50;60.00
21635;DHT22;10979;48.306;9.830;2022-07-24T12:04:58;31.10;60.30
21635;DHT22;10979;48.306;9.830;2022-07-24T12:07:25;31.30;59.40
21635;DHT22;10979;48.306;9.830;2022-07-24T12:09:52;31.40;58.70
21635;DHT22;10979;48.306;9.830;2022-07-24T12:12:29;31.90;57.30
21635;DHT22;10979;48.306;9.830;2022-07-24T12:15:03;31.50;56.50
21635;DHT22;10979;48.306;9.830;2022-07-24T12:17:31;31.10;55.80
21635;DHT22;10979;48.306;9.830;2022-07-24T12:19:58;31.20;57.10
21635;DHT22;10979;48.306;9.830;2022-07-24T12:22:25;30.80;58.20
21635;DHT22;10979;48.306;9.830;2022-07-24T12:24:51;30.60;57.90
21635;DHT22;10979;48.306;9.830;2022-07-24T12:29:59;30.50;57.10
21635;DHT22;10979;48.306;9.830;2022-07-24T12:32:25;30.50;59.40
21635;DHT22;10979;48.306;9.830;2022-07-24T12:34:52;30.40;61.50
21635;DHT22;10979;48.306;9.830;2022-07-24T12:37:20;30.90;59.90
21635;DHT22;10979;48.306;9.830;2022-07-24T12:39:51;30.70;59.00
21635;DHT22;10979;48.306;9.830;2022-07-24T12:42:29;30.40;58.10
21635;DHT22;10979;48.306;9.830;2022-07-24T12:45:08;30.30;58.60
21635;DHT22;10979;48.306;9.830;2022-07-24T12:48:07;30.80;58.50
21635;DHT22;10979;48.306;9.830;2022-07-24T12:50:34;31.20;57.70
21635;DHT22;10979;48.306;9.830;2022-07-24T12:53:04;31.30;56.30
21635;DHT22;10979;48.306;9.830;2022-07-24T12:55:30;31.20;57.20
21635;DHT22;10979;48.306;9.830;2022-07-24T12:58:01;31.10;55.60
21635;DHT22;10979;48.306;9.830;2022-07-24T13:00:27;30.80;57.20
21635;DHT22;10979;48.306;9.830;2022-07-24T13:02:53;31.10;58.00
21635;DHT22;10979;48.306;9.830;2022-07-24T13:05:41;31.10;57.70
21635;DHT22;10979;48.306;9.830;2022-07-24T13:08:10;31.10;55.40
21635;DHT22;10979;48.306;9.830;2022-07-24T13:10:36;30.70;56.00
21635;DHT22;10979;48.306;9.830;2022-07-24T13:13:02;30.70;57.50
21635;DHT22;10979;48.306;9.830;2022-07-24T13:15:28;31.10;57.80
21635;DHT22;10979;48.306;9.830;2022-07-24T13:17:53;30.80;58.30
21635;DHT22;10979;48.306;9.830;2022-07-24T13:20:19;30.80;59.00
21635;DHT22;10979;48.306;9.830;2022-07-24T13:22:45;30.90;59.70
21635;DHT22;10979;48.306;9.830;2022-07-24T13:25:10;30.90;58.50
21635;DHT22;10979;48.306;9.830;2022-07-24T13:27:36;30.30;56.60
21635;DHT22;10979;48.306;9.830;2022-07-24T13:30:02;30.10;57.70
21635;DHT22;10979;48.306;9.830;2022-07-24T13:32:28;30.30;57.90
21635;DHT22;10979;48.306;9.830;2022-07-24T13:34:54;30.10;58.00
21635;DHT22;10979;48.306;9.830;2022-07-24T13:37:19;29.80;58.50
21635;DHT22;10979;48.306;9.830;2022-07-24T13:39:45;29.90;56.30
21635;DHT22;10979;48.306;9.830;2022-07-24T13:42:11;30.10;56.70
21635;DHT22;10979;48.306;9.830;2022-07-24T13:44:36;29.70;57.80
21635;DHT22;10979;48.306;9.830;2022-07-24T13:47:02;30.10;59.90
21635;DHT22;10979;48.306;9.830;2022-07-24T13:49:28;30.20;59.40
21635;DHT22;10979;48.306;9.830;2022-07-24T13:51:54;30.00;57.40
21635;DHT22;10979;48.306;9.830;2022-07-24T13:54:20;29.50;59.60
21635;DHT22;10979;48.306;9.830;2022-07-24T13:56:45;29.50;58.00
21635;DHT22;10979;48.306;9.830;2022-07-24T13:59:11;29.60;58.50
21635;DHT22;10979;48.306;9.830;2022-07-24T14:01:37;30.10;58.00
21635;DHT22;10979;48.306;9.830;2022-07-24T14:04:04;29.90;58.00
21635;DHT22;10979;48.306;9.830;2022-07-24T14:06:34;30.20;58.00
21635;DHT22;10979;48.306;9.830;2022-07-24T14:09:00;29.90;56.20
21635;DHT22;10979;48.306;9.830;2022-07-24T14:11:26;30.20;56.30
21635;DHT22;10979;48.306;9.830;2022-07-24T14:13:51;30.00;56.40
21635;DHT22;10979;48.306;9.830;2022-07-24T14:16:17;29.80;57.60
21635;DHT22;10979;48.306;9.830;2022-07-24T14:18:43;29.80;56.50
21635;DHT22;10979;48.306;9.830;2022-07-24T14:21:09;30.10;57.50
21635;DHT22;10979;48.306;9.830;2022-07-24T14:23:34;30.40;57.00
21635;DHT22;10979;48.306;9.830;2022-07-24T14:26:00;30.50;56.70
21635;DHT22;10979;48.306;9.830;2022-07-24T14:28:25;30.70;57.10
21635;DHT22;10979;48.306;9.830;2022-07-24T14:30:51;30.60;56.30
21635;DHT22;10979;48.306;9.830;2022-07-24T14:33:17;30.40;56.30
21635;DHT22;10979;48.306;9.830;2022-07-24T14:35:42;30.40;57.60
21635;DHT22;10979;48.306;9.830;2022-07-24T14:38:08;29.70;56.40
21635;DHT22;10979;48.306;9.830;2022-07-24T14:40:33;29.60;56.20
21635;DHT22;10979;48.306;9.830;2022-07-24T14:42:59;29.70;56.00
21635;DHT22;10979;48.306;9.830;2022-07-24T14:45:25;29.80;56.40
21635;DHT22;10979;48.306;9.830;2022-07-24T14:47:50;30.00;56.60
21635;DHT22;10979;48.306;9.830;2022-07-24T14:50:16;30.00;56.20
21635;DHT22;10979;48.306;9.830;2022-07-24T14:52:42;30.10;56.50
21635;DHT22;10979;48.306;9.830;2022-07-24T14:55:08;30.10;58.50
21635;DHT22;10979;48.306;9.830;2022-07-24T14:57:34;29.80;56.90
21635;DHT22;10979;48.306;9.830;2022-07-24T15:00:00;29.70;57.30
21635;DHT22;10979;48.306;9.830;2022-07-24T15:02:26;29.90;56.60
21635;DHT22;10979;48.306;9.830;2022-07-24T15:04:51;29.90;56.40
21635;DHT22;10979;48.306;9.830;2022-07-24T15:07:17;29.60;57.30
21635;DHT22;10979;48.306;9.830;2022-07-24T15:09:43;29.70;55.90
21635;DHT22;10979;48.306;9.830;2022-07-24T15:12:09;29.70;56.70
21635;DHT22;10979;48.306;9.830;2022-07-24T15:14:35;29.60;56.80
21635;DHT22;10979;48.306;9.830;2022-07-24T15:17:01;29.70;55.90
21635;DHT22;10979;48.306;9.830;2022-07-24T15:19:26;29.70;56.60
21635;DHT22;10979;48.306;9.830;2022-07-24T15:21:52;29.60;56.90
21635;DHT22;10979;48.306;9.830;2022-07-24T15:24:18;30.00;57.40
21635;DHT22;10979;48.306;9.830;2022-07-24T15:26:44;30.20;57.30
21635;DHT22;10979;48.306;9.830;2022-07-24T15:29:11;30.10;57.10
21635;DHT22;10979;48.306;9.830;2022-07-24T15:31:36;30.00;56.00
21635;DHT22;10979;48.306;9.830;2022-07-24T15:34:02;29.90;56.50
21635;DHT22;10979;48.306;9.830;2022-07-24T15:36:28;29.70;57.20
21635;DHT22;10979;48.306;9.830;2022-07-24T15:38:53;29.70;57.80
21635;DHT22;10979;48.306;9.830;2022-07-24T15:41:19;29.60;56.00
21635;DHT22;10979;48.306;9.830;2022-07-24T15:43:45;29.70;56.50
21635;DHT22;10979;48.306;9.830;2022-07-24T15:46:10;29.80;56.20
21635;DHT22;10979;48.306;9.830;2022-07-24T15:48:36;29.90;55.90
21635;DHT22;10979;48.306;9.830;2022-07-24T15:51:01;30.00;56.00
21635;DHT22;10979;48.306;9.830;2022-07-24T15:53:27;30.00;55.40
21635;DHT22;10979;48.306;9.830;2022-07-24T15:55:53;29.70;55.40
21635;DHT22;10979;48.306;9.830;2022-07-24T15:58:18;29.80;55.70
21635;DHT22;10979;48.306;9.830;2022-07-24T16:00:44;29.70;55.90
21635;DHT22;10979;48.306;9.830;2022-07-24T16:03:09;29.70;56.60
21635;DHT22;10979;48.306;9.830;2022-07-24T16:05:35;30.00;55.50
21635;DHT22;10979;48.306;9.830;2022-07-24T16:08:01;30.10;55.80
21635;DHT22;10979;48.306;9.830;2022-07-24T16:10:27;30.20;55.40
21635;DHT22;10979;48.306;9.830;2022-07-24T16:12:53;29.80;54.20
21635;DHT22;10979;48.306;9.830;2022-07-24T16:15:18;29.70;55.30